19°C Temp
14°C Rocío
73% Humedad
Temperatura
3 KM/H
2 MPH
2 KTS
Calma
Norte

Viento
Despejado
Presión 1012.87 (hPa) - 29.91 (in)
Visibilidad 6.0 (mi) - 9.7 (km)

Condiciones Actuales
LEZL
Distancia 8(km)
Metar :LEZL 222030Z VRB02KT CAVOK 19/14 Q1013 NOSIG
22-04-2024 22:30:00

Aeropuerto
  Metar Datos API de Aviación proporcionados por https://www.checkwx.com/ PHP scripts por weather34.com Modificados por tiempoensevilla.es ©2024